sensor_id;sensor_type;location;lat;lon;timestamp;pressure;altitude;pressure_sealevel;temperature;humidity
10518;BME280;5307;42.548;22.968;2022-12-07T00:00:53;93810.56;;;6.77;100.00
10518;BME280;5307;42.548;22.968;2022-12-07T00:03:20;93818.72;;;6.77;100.00
10518;BME280;5307;42.548;22.968;2022-12-07T00:05:48;93806.34;;;6.76;100.00
10518;BME280;5307;42.548;22.968;2022-12-07T00:08:15;93808.34;;;6.72;100.00
10518;BME280;5307;42.548;22.968;2022-12-07T00:10:42;93809.38;;;6.78;100.00
10518;BME280;5307;42.548;22.968;2022-12-07T00:13:09;93814.47;;;6.76;100.00
10518;BME280;5307;42.548;22.968;2022-12-07T00:15:36;93806.41;;;6.72;100.00
10518;BME280;5307;42.548;22.968;2022-12-07T00:18:03;93804.03;;;6.74;100.00
10518;BME280;5307;42.548;22.968;2022-12-07T00:20:29;93804.44;;;6.73;100.00
10518;BME280;5307;42.548;22.968;2022-12-07T00:22:58;93800.91;;;6.76;100.00
10518;BME280;5307;42.548;22.968;2022-12-07T00:25:25;93791.06;;;6.82;100.00
10518;BME280;5307;42.548;22.968;2022-12-07T00:27:52;93802.00;;;6.78;100.00
10518;BME280;5307;42.548;22.968;2022-12-07T00:30:18;93796.06;;;6.83;100.00
10518;BME280;5307;42.548;22.968;2022-12-07T00:32:45;93804.19;;;6.83;100.00
10518;BME280;5307;42.548;22.968;2022-12-07T00:35:12;93805.06;;;6.80;100.00
10518;BME280;5307;42.548;22.968;2022-12-07T00:37:39;93806.25;;;6.79;100.00
10518;BME280;5307;42.548;22.968;2022-12-07T00:40:09;93804.09;;;6.71;100.00
10518;BME280;5307;42.548;22.968;2022-12-07T00:42:35;93800.53;;;6.74;100.00
10518;BME280;5307;42.548;22.968;2022-12-07T00:45:03;93802.06;;;6.75;100.00
10518;BME280;5307;42.548;22.968;2022-12-07T00:47:30;93813.63;;;6.79;100.00
10518;BME280;5307;42.548;22.968;2022-12-07T00:49:57;93803.28;;;6.90;100.00
10518;BME280;5307;42.548;22.968;2022-12-07T00:52:23;93806.41;;;6.89;100.00
10518;BME280;5307;42.548;22.968;2022-12-07T00:54:50;93804.19;;;6.83;100.00
10518;BME280;5307;42.548;22.968;2022-12-07T00:57:19;93806.00;;;6.90;100.00
10518;BME280;5307;42.548;22.968;2022-12-07T00:59:45;93800.41;;;6.81;100.00
10518;BME280;5307;42.548;22.968;2022-12-07T01:02:12;93793.09;;;6.78;100.00
10518;BME280;5307;42.548;22.968;2022-12-07T01:04:39;93796.31;;;6.89;100.00
10518;BME280;5307;42.548;22.968;2022-12-07T01:07:06;93798.00;;;6.83;100.00
10518;BME280;5307;42.548;22.968;2022-12-07T01:09:33;93786.41;;;6.82;100.00
10518;BME280;5307;42.548;22.968;2022-12-07T01:11:59;93791.63;;;6.90;100.00
10518;BME280;5307;42.548;22.968;2022-12-07T01:17:35;93782.91;;;6.82;100.00
10518;BME280;5307;42.548;22.968;2022-12-07T01:20:03;93776.81;;;6.78;100.00
10518;BME280;5307;42.548;22.968;2022-12-07T01:22:30;93779.25;;;6.89;100.00
10518;BME280;5307;42.548;22.968;2022-12-07T01:24:57;93781.63;;;6.87;100.00
10518;BME280;5307;42.548;22.968;2022-12-07T01:27:23;93774.44;;;6.96;100.00
10518;BME280;5307;42.548;22.968;2022-12-07T01:29:51;93774.94;;;6.91;100.00
10518;BME280;5307;42.548;22.968;2022-12-07T01:32:17;93775.09;;;6.84;100.00
10518;BME280;5307;42.548;22.968;2022-12-07T01:34:47;93763.41;;;6.87;100.00
10518;BME280;5307;42.548;22.968;2022-12-07T01:37:14;93758.81;;;6.84;100.00
10518;BME280;5307;42.548;22.968;2022-12-07T01:39:41;93750.69;;;6.84;100.00
10518;BME280;5307;42.548;22.968;2022-12-07T01:42:09;93770.72;;;6.90;100.00
10518;BME280;5307;42.548;22.968;2022-12-07T01:47:35;93764.44;;;6.93;100.00
10518;BME280;5307;42.548;22.968;2022-12-07T01:50:04;93760.69;;;6.87;100.00
10518;BME280;5307;42.548;22.968;2022-12-07T01:52:33;93762.91;;;6.92;100.00
10518;BME280;5307;42.548;22.968;2022-12-07T01:55:04;93763.22;;;6.94;100.00
10518;BME280;5307;42.548;22.968;2022-12-07T01:57:34;93754.06;;;6.88;100.00
10518;BME280;5307;42.548;22.968;2022-12-07T02:00:03;93762.63;;;6.87;100.00
10518;BME280;5307;42.548;22.968;2022-12-07T02:02:33;93748.31;;;6.86;100.00
10518;BME280;5307;42.548;22.968;2022-12-07T02:05:14;93748.41;;;6.82;100.00
10518;BME280;5307;42.548;22.968;2022-12-07T02:07:42;93742.97;;;6.82;100.00
10518;BME280;5307;42.548;22.968;2022-12-07T02:10:14;93749.91;;;6.83;100.00
10518;BME280;5307;42.548;22.968;2022-12-07T02:12:41;93742.97;;;6.82;100.00
10518;BME280;5307;42.548;22.968;2022-12-07T02:15:10;93756.09;;;6.84;100.00
10518;BME280;5307;42.548;22.968;2022-12-07T02:17:45;93749.81;;;6.87;100.00
10518;BME280;5307;42.548;22.968;2022-12-07T02:20:28;93748.16;;;6.77;100.00
10518;BME280;5307;42.548;22.968;2022-12-07T02:26:10;93727.00;;;6.84;100.00
10518;BME280;5307;42.548;22.968;2022-12-07T02:29:09;93735.59;;;6.83;100.00
10518;BME280;5307;42.548;22.968;2022-12-07T02:31:43;93741.53;;;6.78;100.00
10518;BME280;5307;42.548;22.968;2022-12-07T02:34:16;93724.56;;;6.74;100.00
10518;BME280;5307;42.548;22.968;2022-12-07T02:36:49;93737.97;;;6.81;100.00
10518;BME280;5307;42.548;22.968;2022-12-07T02:39:23;93733.72;;;6.80;100.00
10518;BME280;5307;42.548;22.968;2022-12-07T02:41:55;93716.78;;;6.76;100.00
10518;BME280;5307;42.548;22.968;2022-12-07T02:44:27;93725.25;;;6.78;100.00
10518;BME280;5307;42.548;22.968;2022-12-07T02:46:57;93732.69;;;6.74;100.00
10518;BME280;5307;42.548;22.968;2022-12-07T02:49:26;93727.53;;;6.79;100.00
10518;BME280;5307;42.548;22.968;2022-12-07T02:51:54;93731.69;;;6.84;100.00
10518;BME280;5307;42.548;22.968;2022-12-07T02:54:21;93734.22;;;6.75;100.00
10518;BME280;5307;42.548;22.968;2022-12-07T02:56:50;93731.59;;;6.71;100.00
10518;BME280;5307;42.548;22.968;2022-12-07T02:59:29;93724.56;;;6.74;100.00
10518;BME280;5307;42.548;22.968;2022-12-07T03:02:07;93722.13;;;6.79;100.00
10518;BME280;5307;42.548;22.968;2022-12-07T03:04:42;93727.63;;;6.76;100.00
10518;BME280;5307;42.548;22.968;2022-12-07T03:07:18;93730.69;;;6.78;100.00
10518;BME280;5307;42.548;22.968;2022-12-07T03:09:53;93728.38;;;6.60;100.00
10518;BME280;5307;42.548;22.968;2022-12-07T03:12:26;93714.25;;;6.52;100.00
10518;BME280;5307;42.548;22.968;2022-12-07T03:15:02;93716.44;;;6.58;100.00
10518;BME280;5307;42.548;22.968;2022-12-07T03:17:32;93717.44;;;6.47;100.00
10518;BME280;5307;42.548;22.968;2022-12-07T03:20:04;93717.88;;;6.46;100.00
10518;BME280;5307;42.548;22.968;2022-12-07T03:22:35;93719.00;;;6.48;100.00
10518;BME280;5307;42.548;22.968;2022-12-07T03:25:06;93720.53;;;6.49;100.00
10518;BME280;5307;42.548;22.968;2022-12-07T03:27:39;93727.81;;;6.52;100.00
10518;BME280;5307;42.548;22.968;2022-12-07T03:30:12;93717.38;;;6.51;100.00
10518;BME280;5307;42.548;22.968;2022-12-07T03:32:43;93717.81;;;6.49;100.00
10518;BME280;5307;42.548;22.968;2022-12-07T03:35:15;93718.56;;;6.50;100.00
10518;BME280;5307;42.548;22.968;2022-12-07T03:37:48;93714.81;;;6.60;100.00
10518;BME280;5307;42.548;22.968;2022-12-07T03:40:21;93707.63;;;6.53;100.00
10518;BME280;5307;42.548;22.968;2022-12-07T03:42:50;93698.06;;;6.49;100.00
10518;BME280;5307;42.548;22.968;2022-12-07T03:45:22;93710.59;;;6.59;100.00
10518;BME280;5307;42.548;22.968;2022-12-07T03:47:54;93703.19;;;6.60;100.00
10518;BME280;5307;42.548;22.968;2022-12-07T03:50:30;93711.09;;;6.54;100.00
10518;BME280;5307;42.548;22.968;2022-12-07T04:02:04;93705.59;;;6.58;100.00
10518;BME280;5307;42.548;22.968;2022-12-07T04:04:32;93717.13;;;6.62;100.00
10518;BME280;5307;42.548;22.968;2022-12-07T04:07:00;93702.78;;;6.61;100.00
10518;BME280;5307;42.548;22.968;2022-12-07T04:09:28;93721.28;;;6.66;100.00
10518;BME280;5307;42.548;22.968;2022-12-07T04:11:54;93710.91;;;6.61;100.00
10518;BME280;5307;42.548;22.968;2022-12-07T04:14:21;93724.00;;;6.66;100.00
10518;BME280;5307;42.548;22.968;2022-12-07T04:16:50;93727.97;;;6.62;100.00
10518;BME280;5307;42.548;22.968;2022-12-07T04:19:20;93714.16;;;6.56;100.00
10518;BME280;5307;42.548;22.968;2022-12-07T04:21:47;93719.66;;;6.52;100.00
10518;BME280;5307;42.548;22.968;2022-12-07T04:24:14;93723.38;;;6.59;100.00
10518;BME280;5307;42.548;22.968;2022-12-07T04:26:42;93722.56;;;6.62;100.00
10518;BME280;5307;42.548;22.968;2022-12-07T04:29:09;93723.31;;;6.62;100.00
10518;BME280;5307;42.548;22.968;2022-12-07T04:31:36;93714.91;;;6.57;100.00
10518;BME280;5307;42.548;22.968;2022-12-07T04:34:03;93714.41;;;6.45;100.00
10518;BME280;5307;42.548;22.968;2022-12-07T04:36:32;93725.19;;;6.49;100.00
10518;BME280;5307;42.548;22.968;2022-12-07T04:38:59;93717.53;;;6.44;100.00
10518;BME280;5307;42.548;22.968;2022-12-07T04:41:26;93722.81;;;6.51;100.00
10518;BME280;5307;42.548;22.968;2022-12-07T04:43:54;93716.88;;;6.40;100.00
10518;BME280;5307;42.548;22.968;2022-12-07T04:46:22;93712.53;;;6.42;100.00
10518;BME280;5307;42.548;22.968;2022-12-07T04:48:49;93717.97;;;6.42;100.00
10518;BME280;5307;42.548;22.968;2022-12-07T04:51:20;93709.06;;;6.42;100.00
10518;BME280;5307;42.548;22.968;2022-12-07T04:53:48;93717.03;;;6.33;100.00
10518;BME280;5307;42.548;22.968;2022-12-07T04:56:16;93718.38;;;6.41;100.00
10518;BME280;5307;42.548;22.968;2022-12-07T04:58:44;93722.88;;;6.47;100.00
10518;BME280;5307;42.548;22.968;2022-12-07T05:01:11;93717.97;;;6.26;100.00
10518;BME280;5307;42.548;22.968;2022-12-07T05:03:38;93715.91;;;6.30;100.00
10518;BME280;5307;42.548;22.968;2022-12-07T05:06:05;93715.91;;;6.30;100.00
10518;BME280;5307;42.548;22.968;2022-12-07T05:08:32;93712.72;;;6.35;100.00
10518;BME280;5307;42.548;22.968;2022-12-07T05:11:02;93716.88;;;6.40;100.00
10518;BME280;5307;42.548;22.968;2022-12-07T05:13:29;93720.44;;;6.37;100.00
10518;BME280;5307;42.548;22.968;2022-12-07T05:15:56;93725.53;;;6.35;100.00
10518;BME280;5307;42.548;22.968;2022-12-07T05:18:23;93722.53;;;6.29;100.00
10518;BME280;5307;42.548;22.968;2022-12-07T05:20:50;93729.91;;;6.29;100.00
10518;BME280;5307;42.548;22.968;2022-12-07T05:23:17;93725.91;;;6.33;100.00
10518;BME280;5307;42.548;22.968;2022-12-07T05:25:45;93719.81;;;6.29;100.00
10518;BME280;5307;42.548;22.968;2022-12-07T05:28:14;93720.91;;;6.32;100.00
10518;BME280;5307;42.548;22.968;2022-12-07T05:30:41;93717.63;;;6.40;100.00
10518;BME280;5307;42.548;22.968;2022-12-07T05:33:08;93712.78;;;6.32;100.00
10518;BME280;5307;42.548;22.968;2022-12-07T05:35:34;93711.19;;;6.34;100.00
10518;BME280;5307;42.548;22.968;2022-12-07T05:38:06;93718.56;;;6.34;100.00
10518;BME280;5307;42.548;22.968;2022-12-07T05:40:33;93713.22;;;6.30;100.00
10518;BME280;5307;42.548;22.968;2022-12-07T05:43:27;93712.53;;;6.26;100.00
10518;BME280;5307;42.548;22.968;2022-12-07T05:45:57;93700.16;;;6.25;100.00
10518;BME280;5307;42.548;22.968;2022-12-07T05:48:25;93708.44;;;6.18;100.00
10518;BME280;5307;42.548;22.968;2022-12-07T05:50:52;93722.72;;;6.22;100.00
10518;BME280;5307;42.548;22.968;2022-12-07T05:53:19;93719.28;;;6.18;100.00
10518;BME280;5307;42.548;22.968;2022-12-07T05:55:46;93709.31;;;6.15;100.00
10518;BME280;5307;42.548;22.968;2022-12-07T05:58:13;93714.16;;;6.23;100.00
10518;BME280;5307;42.548;22.968;2022-12-07T06:00:59;93718.47;;;6.21;100.00
10518;BME280;5307;42.548;22.968;2022-12-07T06:03:25;93708.38;;;6.21;100.00
10518;BME280;5307;42.548;22.968;2022-12-07T06:05:52;93713.72;;;6.25;100.00
10518;BME280;5307;42.548;22.968;2022-12-07T06:08:19;93708.97;;;6.29;100.00
10518;BME280;5307;42.548;22.968;2022-12-07T06:10:47;93715.50;;;6.32;100.00
10518;BME280;5307;42.548;22.968;2022-12-07T06:13:35;93707.44;;;6.28;100.00
10518;BME280;5307;42.548;22.968;2022-12-07T06:16:02;93715.59;;;6.28;100.00
10518;BME280;5307;42.548;22.968;2022-12-07T06:18:29;93704.75;;;6.28;100.00
10518;BME280;5307;42.548;22.968;2022-12-07T06:20:56;93711.59;;;6.33;100.00
10518;BME280;5307;42.548;22.968;2022-12-07T06:23:23;93711.34;;;6.27;100.00
10518;BME280;5307;42.548;22.968;2022-12-07T06:25:50;93715.44;;;6.35;100.00
10518;BME280;5307;42.548;22.968;2022-12-07T06:28:16;93702.69;;;6.32;100.00
10518;BME280;5307;42.548;22.968;2022-12-07T06:30:43;93719.81;;;6.45;100.00
10518;BME280;5307;42.548;22.968;2022-12-07T06:33:18;93713.56;;;6.48;100.00
10518;BME280;5307;42.548;22.968;2022-12-07T06:35:45;93718.91;;;6.52;100.00
10518;BME280;5307;42.548;22.968;2022-12-07T06:44:30;93722.81;;;6.51;100.00
10518;BME280;5307;42.548;22.968;2022-12-07T06:46:58;93720.34;;;6.57;100.00
10518;BME280;5307;42.548;22.968;2022-12-07T06:49:26;93727.03;;;6.68;100.00
10518;BME280;5307;42.548;22.968;2022-12-07T06:51:53;93721.09;;;6.73;100.00
10518;BME280;5307;42.548;22.968;2022-12-07T06:54:20;93716.78;;;6.76;100.00
10518;BME280;5307;42.548;22.968;2022-12-07T06:56:47;93722.59;;;6.74;100.00
10518;BME280;5307;42.548;22.968;2022-12-07T06:59:13;93726.44;;;6.77;100.00
10518;BME280;5307;42.548;22.968;2022-12-07T07:01:40;93730.34;;;6.76;100.00
10518;BME280;5307;42.548;22.968;2022-12-07T07:04:08;93720.66;;;6.75;100.00
10518;BME280;5307;42.548;22.968;2022-12-07T07:06:36;93721.84;;;6.74;100.00
10518;BME280;5307;42.548;22.968;2022-12-07T07:09:03;93731.50;;;6.75;100.00
10518;BME280;5307;42.548;22.968;2022-12-07T07:11:30;93728.81;;;6.75;100.00
10518;BME280;5307;42.548;22.968;2022-12-07T07:13:57;93714.09;;;6.89;100.00
10518;BME280;5307;42.548;22.968;2022-12-07T07:16:27;93716.50;;;6.87;100.00
10518;BME280;5307;42.548;22.968;2022-12-07T07:18:54;93712.34;;;6.82;100.00
10518;BME280;5307;42.548;22.968;2022-12-07T07:21:21;93710.91;;;6.94;100.00
10518;BME280;5307;42.548;22.968;2022-12-07T07:23:49;93718.78;;;6.88;100.00
10518;BME280;5307;42.548;22.968;2022-12-07T07:26:17;93717.94;;;6.91;100.00
10518;BME280;5307;42.548;22.968;2022-12-07T07:28:44;93721.66;;;6.97;100.00
10518;BME280;5307;42.548;22.968;2022-12-07T07:31:10;93717.75;;;6.98;100.00
10518;BME280;5307;42.548;22.968;2022-12-07T07:33:37;93727.69;;;7.05;100.00
10518;BME280;5307;42.548;22.968;2022-12-07T07:36:05;93737.78;;;7.04;100.00
10518;BME280;5307;42.548;22.968;2022-12-07T07:38:33;93730.91;;;7.00;100.00
10518;BME280;5307;42.548;22.968;2022-12-07T07:41:01;93736.91;;;7.07;100.00
10518;BME280;5307;42.548;22.968;2022-12-07T07:43:28;93729.09;;;7.09;100.00
10518;BME280;5307;42.548;22.968;2022-12-07T07:45:55;93720.53;;;7.11;100.00
10518;BME280;5307;42.548;22.968;2022-12-07T07:48:21;93735.78;;;7.21;100.00
10518;BME280;5307;42.548;22.968;2022-12-07T07:50:50;93734.81;;;7.28;100.00
10518;BME280;5307;42.548;22.968;2022-12-07T07:53:17;93734.34;;;7.17;100.00
10518;BME280;5307;42.548;22.968;2022-12-07T07:55:50;93733.66;;;7.12;100.00
10518;BME280;5307;42.548;22.968;2022-12-07T07:58:20;93731.28;;;7.14;100.00
10518;BME280;5307;42.548;22.968;2022-12-07T08:00:47;93730.34;;;7.21;100.00
10518;BME280;5307;42.548;22.968;2022-12-07T08:03:14;93738.28;;;7.28;100.00
10518;BME280;5307;42.548;22.968;2022-12-07T08:05:42;93733.78;;;7.38;100.00
10518;BME280;5307;42.548;22.968;2022-12-07T08:08:09;93729.81;;;7.55;100.00
10518;BME280;5307;42.548;22.968;2022-12-07T08:10:35;93730.34;;;7.50;100.00
10518;BME280;5307;42.548;22.968;2022-12-07T08:13:03;93717.84;;;7.53;100.00
10518;BME280;5307;42.548;22.968;2022-12-07T08:15:42;93713.00;;;7.73;100.00
10518;BME280;5307;42.548;22.968;2022-12-07T08:18:10;93712.91;;;7.77;100.00
10518;BME280;5307;42.548;22.968;2022-12-07T08:20:38;93716.41;;;7.90;100.00
10518;BME280;5307;42.548;22.968;2022-12-07T08:23:05;93718.81;;;8.13;100.00
10518;BME280;5307;42.548;22.968;2022-12-07T08:25:33;93716.53;;;7.99;100.00
10518;BME280;5307;42.548;22.968;2022-12-07T08:28:00;93723.47;;;8.00;100.00
10518;BME280;5307;42.548;22.968;2022-12-07T08:30:27;93712.41;;;8.07;100.00
10518;BME280;5307;42.548;22.968;2022-12-07T08:32:56;93720.97;;;7.93;100.00
10518;BME280;5307;42.548;22.968;2022-12-07T08:35:23;93719.81;;;8.07;100.00
10518;BME280;5307;42.548;22.968;2022-12-07T08:37:50;93719.06;;;8.19;100.00
10518;BME280;5307;42.548;22.968;2022-12-07T08:40:17;93715.34;;;8.25;100.00
10518;BME280;5307;42.548;22.968;2022-12-07T08:42:44;93701.31;;;8.40;100.00
10518;BME280;5307;42.548;22.968;2022-12-07T08:45:15;93701.44;;;8.36;100.00
10518;BME280;5307;42.548;22.968;2022-12-07T08:47:46;93694.34;;;8.39;100.00
10518;BME280;5307;42.548;22.968;2022-12-07T08:50:16;93696.75;;;8.62;100.00
10518;BME280;5307;42.548;22.968;2022-12-07T09:01:58;93687.69;;;9.00;96.16
10518;BME280;5307;42.548;22.968;2022-12-07T09:04:25;93673.56;;;8.92;95.64
10518;BME280;5307;42.548;22.968;2022-12-07T09:06:53;93693.34;;;9.05;95.86
10518;BME280;5307;42.548;22.968;2022-12-07T09:09:20;93683.66;;;9.04;95.27
10518;BME280;5307;42.548;22.968;2022-12-07T09:11:47;93679.69;;;9.62;94.78
10518;BME280;5307;42.548;22.968;2022-12-07T09:14:14;93674.41;;;9.67;92.05
10518;BME280;5307;42.548;22.968;2022-12-07T09:16:42;93676.91;;;10.05;90.64
10518;BME280;5307;42.548;22.968;2022-12-07T09:19:09;93672.88;;;9.88;88.98
10518;BME280;5307;42.548;22.968;2022-12-07T09:21:37;93673.25;;;9.99;89.76
10518;BME280;5307;42.548;22.968;2022-12-07T09:24:06;93677.34;;;9.73;88.23
10518;BME280;5307;42.548;22.968;2022-12-07T09:26:34;93666.00;;;10.05;87.85
10518;BME280;5307;42.548;22.968;2022-12-07T09:29:02;93670.41;;;10.52;87.53
10518;BME280;5307;42.548;22.968;2022-12-07T09:31:29;93667.03;;;10.39;86.89
10518;BME280;5307;42.548;22.968;2022-12-07T09:33:56;93658.19;;;10.26;86.94
10518;BME280;5307;42.548;22.968;2022-12-07T09:36:23;93661.31;;;9.75;86.93
10518;BME280;5307;42.548;22.968;2022-12-07T09:38:50;93661.06;;;9.60;87.22
10518;BME280;5307;42.548;22.968;2022-12-07T09:41:19;93649.22;;;9.85;88.23
10518;BME280;5307;42.548;22.968;2022-12-07T09:43:47;93652.03;;;10.34;88.62
10518;BME280;5307;42.548;22.968;2022-12-07T09:46:17;93635.97;;;10.05;86.69
10518;BME280;5307;42.548;22.968;2022-12-07T09:48:46;93646.72;;;10.40;86.53
10518;BME280;5307;42.548;22.968;2022-12-07T09:51:17;93639.66;;;10.61;86.11
10518;BME280;5307;42.548;22.968;2022-12-07T09:53:45;93637.25;;;10.81;84.87
10518;BME280;5307;42.548;22.968;2022-12-07T09:56:13;93632.50;;;10.54;83.82
10518;BME280;5307;42.548;22.968;2022-12-07T09:58:43;93619.41;;;10.31;82.41
10518;BME280;5307;42.548;22.968;2022-12-07T10:01:13;93625.13;;;10.91;82.96
10518;BME280;5307;42.548;22.968;2022-12-07T10:03:42;93615.56;;;11.05;80.26
10518;BME280;5307;42.548;22.968;2022-12-07T10:06:12;93624.63;;;10.65;80.03
10518;BME280;5307;42.548;22.968;2022-12-07T10:08:39;93606.16;;;10.88;80.32
10518;BME280;5307;42.548;22.968;2022-12-07T10:11:07;93622.69;;;10.75;80.95
10518;BME280;5307;42.548;22.968;2022-12-07T10:13:37;93616.59;;;10.62;81.93
10518;BME280;5307;42.548;22.968;2022-12-07T10:16:32;93622.66;;;10.57;81.74
10518;BME280;5307;42.548;22.968;2022-12-07T10:19:18;93614.91;;;10.46;82.35
10518;BME280;5307;42.548;22.968;2022-12-07T10:22:00;93621.72;;;10.42;82.27
10518;BME280;5307;42.548;22.968;2022-12-07T10:24:28;93617.63;;;10.46;83.00
10518;BME280;5307;42.548;22.968;2022-12-07T10:26:57;93605.16;;;10.36;82.05
10518;BME280;5307;42.548;22.968;2022-12-07T10:29:28;93608.50;;;10.31;81.88
10518;BME280;5307;42.548;22.968;2022-12-07T10:32:00;93604.44;;;10.45;81.96
10518;BME280;5307;42.548;22.968;2022-12-07T10:34:28;93597.00;;;10.45;82.51
10518;BME280;5307;42.548;22.968;2022-12-07T10:37:17;93592.13;;;10.40;82.62
10518;BME280;5307;42.548;22.968;2022-12-07T10:39:47;93588.19;;;10.32;82.47
10518;BME280;5307;42.548;22.968;2022-12-07T10:42:19;93585.47;;;10.32;82.20
10518;BME280;5307;42.548;22.968;2022-12-07T10:44:47;93580.78;;;10.42;82.79
10518;BME280;5307;42.548;22.968;2022-12-07T10:47:32;93567.75;;;10.64;82.75
10518;BME280;5307;42.548;22.968;2022-12-07T10:50:26;93572.00;;;10.83;82.30
10518;BME280;5307;42.548;22.968;2022-12-07T10:53:10;93556.97;;;11.06;81.23
10518;BME280;5307;42.548;22.968;2022-12-07T10:55:56;93559.38;;;11.22;81.40
10518;BME280;5307;42.548;22.968;2022-12-07T10:58:44;93559.22;;;11.17;79.98
10518;BME280;5307;42.548;22.968;2022-12-07T11:01:23;93552.38;;;11.30;77.75
10518;BME280;5307;42.548;22.968;2022-12-07T11:04:07;93549.66;;;11.73;76.01
10518;BME280;5307;42.548;22.968;2022-12-07T11:06:45;93547.22;;;11.75;74.35
10518;BME280;5307;42.548;22.968;2022-12-07T11:09:40;93541.13;;;11.89;73.64
10518;BME280;5307;42.548;22.968;2022-12-07T11:12:15;93543.00;;;12.07;72.28
10518;BME280;5307;42.548;22.968;2022-12-07T11:14:55;93536.28;;;12.08;72.28
10518;BME280;5307;42.548;22.968;2022-12-07T11:17:32;93536.16;;;11.69;71.96
10518;BME280;5307;42.548;22.968;2022-12-07T11:20:20;93534.97;;;11.52;72.68
10518;BME280;5307;42.548;22.968;2022-12-07T11:22:58;93533.69;;;11.29;72.51
10518;BME280;5307;42.548;22.968;2022-12-07T11:25:32;93528.84;;;11.66;72.43
10518;BME280;5307;42.548;22.968;2022-12-07T11:28:16;93524.00;;;11.70;71.52
10518;BME280;5307;42.548;22.968;2022-12-07T11:34:36;93520.09;;;11.95;71.11
10518;BME280;5307;42.548;22.968;2022-12-07T11:37:09;93513.03;;;12.12;70.69
10518;BME280;5307;42.548;22.968;2022-12-07T11:39:41;93510.03;;;12.49;70.70
10518;BME280;5307;42.548;22.968;2022-12-07T11:42:14;93513.81;;;12.04;70.13
10518;BME280;5307;42.548;22.968;2022-12-07T11:44:49;93521.59;;;12.29;70.65
10518;BME280;5307;42.548;22.968;2022-12-07T11:47:25;93513.06;;;12.03;69.56
10518;BME280;5307;42.548;22.968;2022-12-07T11:49:54;93512.06;;;11.92;70.10
10518;BME280;5307;42.548;22.968;2022-12-07T11:52:30;93508.75;;;11.78;70.69
10518;BME280;5307;42.548;22.968;2022-12-07T11:54:59;93506.94;;;11.75;70.80
10518;BME280;5307;42.548;22.968;2022-12-07T11:57:33;93512.69;;;11.77;70.88
10518;BME280;5307;42.548;22.968;2022-12-07T12:00:06;93516.38;;;11.83;71.03
10518;BME280;5307;42.548;22.968;2022-12-07T12:02:44;93509.56;;;12.03;70.51
10518;BME280;5307;42.548;22.968;2022-12-07T12:05:17;93505.78;;;12.24;69.69
10518;BME280;5307;42.548;22.968;2022-12-07T12:07:49;93505.66;;;11.95;69.37
10518;BME280;5307;42.548;22.968;2022-12-07T12:10:21;93490.47;;;11.94;69.74
10518;BME280;5307;42.548;22.968;2022-12-07T12:13:05;93493.81;;;11.98;69.25
10518;BME280;5307;42.548;22.968;2022-12-07T12:19:27;93458.97;;;11.65;68.91
10518;BME280;5307;42.548;22.968;2022-12-07T12:22:06;93481.91;;;12.01;69.54
10518;BME280;5307;42.548;22.968;2022-12-07T12:24:39;93470.59;;;12.08;68.16
10518;BME280;5307;42.548;22.968;2022-12-07T12:27:09;93458.78;;;12.02;68.04
10518;BME280;5307;42.548;22.968;2022-12-07T12:29:38;93463.03;;;12.03;69.06
10518;BME280;5307;42.548;22.968;2022-12-07T12:32:17;93461.16;;;12.09;68.05
10518;BME280;5307;42.548;22.968;2022-12-07T12:35:29;93465.22;;;11.99;67.46
10518;BME280;5307;42.548;22.968;2022-12-07T12:38:25;93463.50;;;12.01;67.42
10518;BME280;5307;42.548;22.968;2022-12-07T12:40:55;93459.56;;;12.02;67.74
10518;BME280;5307;42.548;22.968;2022-12-07T12:43:45;93461.19;;;11.85;67.58
10518;BME280;5307;42.548;22.968;2022-12-07T12:46:51;93457.03;;;11.89;68.66
10518;BME280;5307;42.548;22.968;2022-12-07T12:49:43;93473.66;;;11.77;69.09
10518;BME280;5307;42.548;22.968;2022-12-07T12:55:17;93472.91;;;11.43;70.41
10518;BME280;5307;42.548;22.968;2022-12-07T12:57:52;93476.38;;;11.44;71.11
10518;BME280;5307;42.548;22.968;2022-12-07T13:00:39;93475.44;;;11.56;71.12
10518;BME280;5307;42.548;22.968;2022-12-07T13:03:21;93468.38;;;11.64;71.23
10518;BME280;5307;42.548;22.968;2022-12-07T13:06:20;93465.09;;;11.51;71.07
10518;BME280;5307;42.548;22.968;2022-12-07T13:08:59;93460.53;;;11.57;70.64
10518;BME280;5307;42.548;22.968;2022-12-07T13:11:31;93464.72;;;11.67;70.96
10518;BME280;5307;42.548;22.968;2022-12-07T13:16:58;93472.75;;;11.38;70.97
10518;BME280;5307;42.548;22.968;2022-12-07T13:19:54;93464.22;;;11.45;71.03
10518;BME280;5307;42.548;22.968;2022-12-07T13:22:56;93462.19;;;11.21;71.45
10518;BME280;5307;42.548;22.968;2022-12-07T13:25:33;93461.44;;;11.21;71.87
10518;BME280;5307;42.548;22.968;2022-12-07T13:28:09;93464.97;;;11.03;72.14
10518;BME280;5307;42.548;22.968;2022-12-07T13:30:50;93439.19;;;10.95;72.71
10518;BME280;5307;42.548;22.968;2022-12-07T13:33:20;93462.41;;;10.99;72.67
10518;BME280;5307;42.548;22.968;2022-12-07T13:35:47;93458.28;;;11.04;73.16
10518;BME280;5307;42.548;22.968;2022-12-07T13:38:25;93454.34;;;11.05;73.24
10518;BME280;5307;42.548;22.968;2022-12-07T13:41:05;93458.94;;;10.99;73.31
10518;BME280;5307;42.548;22.968;2022-12-07T13:43:43;93453.75;;;11.01;73.02
10518;BME280;5307;42.548;22.968;2022-12-07T13:46:10;93451.63;;;10.96;73.16
10518;BME280;5307;42.548;22.968;2022-12-07T13:48:44;93452.13;;;10.85;73.16
10518;BME280;5307;42.548;22.968;2022-12-07T13:51:18;93453.47;;;10.90;73.19
10518;BME280;5307;42.548;22.968;2022-12-07T13:53:50;93447.25;;;10.89;73.66
10518;BME280;5307;42.548;22.968;2022-12-07T13:56:17;93453.31;;;10.93;73.54
10518;BME280;5307;42.548;22.968;2022-12-07T13:58:44;93451.97;;;10.89;73.58
10518;BME280;5307;42.548;22.968;2022-12-07T14:01:11;93455.63;;;10.86;73.23
10518;BME280;5307;42.548;22.968;2022-12-07T14:03:39;93441.66;;;10.75;73.31
10518;BME280;5307;42.548;22.968;2022-12-07T14:06:20;93452.25;;;10.82;73.31
10518;BME280;5307;42.548;22.968;2022-12-07T14:08:49;93453.81;;;10.74;73.40